KSGH/SGH METAR and TAF weather

Enter ICAO airport designator
Station Type Date Time Source
KSGH METAR 2022/10/01 07:56 UTC NOAA

KSGH 010756Z AUTO 04007KT 10SM CLR 10/06 A3005 RMK AO2 SLP174 T01000056


Station Type Date Time Source
KSGH Decoded METAR 2022/10/01 07:56 UTC NOAA

Springfield, Springfield-Beckley Municipal Airport, OH, United States (KSGH) 39-50-25N 083-50-24W
Oct 01, 2022 - 03:56 AM EDT / 2022.10.01 0756 UTC
Wind: from the NE (040 degrees) at 8 MPH (7 KT):0
Visibility: 10 mile(s):0
Sky conditions: clear
Temperature: 50.0 F (10.0 C)
Dew Point: 42.1 F (5.6 C)
Relative Humidity: 74%
Pressure (altimeter): 30.05 in. Hg (1017 hPa)
ob: KSGH 010756Z AUTO 04007KT 10SM CLR 10/06 A3005 RMK AO2 SLP174 T01000056
cycle: 8

Station Type Date Time Source
KSGH TAF UTC NOAA

Error!

Example: see airport list